createdAt,value
2022-10-13T00:00:49.861Z,11.59
2022-10-13T00:03:51.775Z,11.59
2022-10-13T00:06:53.644Z,11.65
2022-10-13T00:09:56.876Z,11.72
2022-10-13T00:12:58.759Z,11.71
2022-10-13T00:16:03.028Z,11.71
2022-10-13T00:19:05.248Z,11.73
2022-10-13T00:22:07.202Z,11.71
2022-10-13T00:25:10.701Z,11.74
2022-10-13T00:28:13.581Z,11.75
2022-10-13T00:31:17.528Z,11.74
2022-10-13T00:34:19.456Z,11.77
2022-10-13T00:37:21.393Z,11.78
2022-10-13T00:40:24.859Z,11.75
2022-10-13T00:43:47.396Z,11.75
2022-10-13T00:46:49.310Z,11.77
2022-10-13T00:49:53.039Z,11.77
2022-10-13T00:52:57.077Z,11.75
2022-10-13T00:56:01.189Z,11.75
2022-10-13T00:59:05.553Z,11.80
2022-10-13T01:02:08.025Z,11.76
2022-10-13T01:05:10.186Z,11.80
2022-10-13T01:08:13.001Z,11.78
2022-10-13T01:11:29.595Z,11.73
2022-10-13T01:14:36.511Z,11.73
2022-10-13T01:17:49.897Z,11.71
2022-10-13T01:21:16.797Z,11.67
2022-10-13T01:24:47.637Z,11.68
2022-10-13T01:27:59.734Z,11.63
2022-10-13T01:31:07.174Z,11.64
2022-10-13T01:34:16.302Z,11.72
2022-10-13T01:37:27.527Z,11.73
2022-10-13T01:40:35.321Z,11.61
2022-10-13T01:43:42.086Z,11.66
2022-10-13T01:46:49.540Z,11.64
2022-10-13T01:49:53.064Z,11.59
2022-10-13T01:52:55.896Z,11.50
2022-10-13T01:56:00.064Z,11.51
2022-10-13T01:59:05.623Z,11.56
2022-10-13T02:02:18.974Z,11.55
2022-10-13T02:05:27.327Z,11.54
2022-10-13T02:08:36.886Z,11.51
2022-10-13T02:11:43.142Z,11.54
2022-10-13T02:14:46.932Z,11.56
2022-10-13T02:17:51.232Z,11.58
2022-10-13T02:20:54.275Z,11.56
2022-10-13T02:23:56.225Z,11.61
2022-10-13T02:26:58.376Z,11.61
2022-10-13T02:30:00.365Z,11.63
2022-10-13T02:33:03.797Z,11.61
2022-10-13T02:36:06.130Z,11.58
2022-10-13T02:39:09.540Z,11.61
2022-10-13T02:42:11.738Z,11.61
2022-10-13T02:45:13.742Z,11.61
2022-10-13T02:48:17.095Z,11.65
2022-10-13T02:51:19.060Z,11.66
2022-10-13T02:54:22.003Z,11.65
2022-10-13T02:57:24.967Z,11.65
2022-10-13T03:00:26.907Z,11.69
2022-10-13T03:03:30.267Z,11.64
2022-10-13T03:06:32.131Z,11.65
2022-10-13T03:09:33.994Z,11.67
2022-10-13T03:12:35.905Z,11.69
2022-10-13T03:15:38.826Z,11.68
2022-10-13T03:18:42.097Z,11.64
2022-10-13T03:21:44.011Z,11.52
2022-10-13T03:24:46.077Z,11.54
2022-10-13T03:27:47.953Z,11.59
2022-10-13T03:30:50.961Z,11.62
2022-10-13T03:33:54.579Z,11.60
2022-10-13T03:36:56.601Z,11.63
2022-10-13T03:39:58.604Z,11.57
2022-10-13T03:43:00.537Z,11.60
2022-10-13T03:46:03.522Z,11.59
2022-10-13T03:49:07.113Z,11.63
2022-10-13T03:52:09.054Z,11.64
2022-10-13T03:55:11.046Z,11.62
2022-10-13T03:58:13.068Z,11.66
2022-10-13T04:01:15.035Z,11.67
2022-10-13T04:04:18.355Z,11.68
2022-10-13T04:07:20.265Z,11.67
2022-10-13T04:10:22.174Z,11.59
2022-10-13T04:13:24.028Z,11.62
2022-10-13T04:16:28.216Z,11.58
2022-10-13T04:19:31.467Z,11.50
2022-10-13T04:22:33.706Z,11.54
2022-10-13T04:25:35.979Z,11.62
2022-10-13T04:28:37.882Z,11.64
2022-10-13T04:31:40.303Z,11.60
2022-10-13T04:34:43.598Z,11.59
2022-10-13T04:37:45.498Z,11.59
2022-10-13T04:40:47.482Z,11.58
2022-10-13T04:43:50.284Z,11.56
2022-10-13T04:46:52.156Z,11.53
2022-10-13T04:49:55.432Z,11.49
2022-10-13T04:52:59.018Z,11.45
2022-10-13T04:56:03.064Z,11.48
2022-10-13T04:59:05.401Z,11.50
2022-10-13T05:02:07.470Z,11.52
2022-10-13T05:05:11.254Z,11.53
2022-10-13T05:08:13.117Z,11.56
2022-10-13T05:11:16.134Z,11.58
2022-10-13T05:14:18.131Z,11.62
2022-10-13T05:17:20.885Z,11.58
2022-10-13T05:20:29.685Z,11.61
2022-10-13T05:23:33.066Z,11.57
2022-10-13T05:26:36.042Z,11.58
2022-10-13T05:29:40.551Z,11.61
2022-10-13T05:32:43.333Z,11.55
2022-10-13T05:35:48.050Z,11.57
2022-10-13T05:38:52.352Z,11.54
2022-10-13T05:41:56.036Z,11.57
2022-10-13T05:44:59.840Z,11.50
2022-10-13T05:48:01.913Z,11.49
2022-10-13T05:51:07.738Z,11.48
2022-10-13T05:54:14.098Z,11.49
2022-10-13T05:57:21.446Z,11.51
2022-10-13T06:00:25.427Z,11.51
2022-10-13T06:03:28.519Z,11.51
2022-10-13T06:06:33.186Z,11.53
2022-10-13T06:09:38.357Z,11.52
2022-10-13T06:12:40.389Z,11.53
2022-10-13T06:15:42.300Z,11.58
2022-10-13T06:18:44.476Z,11.58
2022-10-13T06:21:47.809Z,11.62
2022-10-13T06:24:49.853Z,11.64
2022-10-13T06:27:51.759Z,11.65
2022-10-13T06:30:53.693Z,11.65
2022-10-13T06:33:55.716Z,11.58
2022-10-13T06:36:59.158Z,11.60
2022-10-13T06:40:01.077Z,11.61
2022-10-13T06:43:03.266Z,11.66
2022-10-13T06:46:05.563Z,11.66
2022-10-13T06:49:07.658Z,11.59
2022-10-13T06:52:10.946Z,11.68
2022-10-13T06:55:13.029Z,11.69
2022-10-13T06:58:14.887Z,11.74
2022-10-13T07:01:16.951Z,11.80
2022-10-13T07:04:18.874Z,11.80
2022-10-13T07:07:22.270Z,11.82
2022-10-13T07:10:24.290Z,11.83
2022-10-13T07:13:26.236Z,11.87
2022-10-13T07:16:28.212Z,11.90
2022-10-13T07:19:30.204Z,11.92
2022-10-13T07:22:33.475Z,11.99
2022-10-13T07:25:35.441Z,11.99
2022-10-13T07:28:38.055Z,12.07
2022-10-13T07:31:40.220Z,12.10
2022-10-13T07:34:42.133Z,12.11
2022-10-13T07:37:45.722Z,12.15
2022-10-13T07:40:47.649Z,12.12
2022-10-13T07:43:49.716Z,12.19
2022-10-13T07:46:51.723Z,12.30
2022-10-13T07:49:53.606Z,12.31
2022-10-13T07:52:56.935Z,12.30
2022-10-13T07:56:00.488Z,12.32
2022-10-13T07:59:02.742Z,12.34
2022-10-13T08:02:04.797Z,12.36
2022-10-13T08:05:07.225Z,12.41
2022-10-13T08:08:10.435Z,12.41
2022-10-13T08:11:16.434Z,12.44
2022-10-13T08:14:19.133Z,12.34
2022-10-13T08:17:21.281Z,12.41
2022-10-13T08:20:26.291Z,12.45
2022-10-13T08:23:32.058Z,12.44
2022-10-13T08:26:33.930Z,12.48
2022-10-13T08:29:35.961Z,12.47
2022-10-13T08:32:38.014Z,12.51
2022-10-13T08:35:40.072Z,12.46
2022-10-13T08:38:43.839Z,12.46
2022-10-13T08:41:46.140Z,12.35
2022-10-13T08:45:28.347Z,12.60
2022-10-13T08:48:18.632Z,12.46
2022-10-13T08:51:21.040Z,12.49
2022-10-13T08:54:26.027Z,12.63
2022-10-13T08:57:27.948Z,12.56
2022-10-13T09:00:30.372Z,12.53
2022-10-13T09:03:32.297Z,12.68
2022-10-13T09:06:38.697Z,12.57
2022-10-13T09:09:42.411Z,12.50
2022-10-13T09:12:44.417Z,12.56
2022-10-13T09:15:48.127Z,12.50
2022-10-13T09:18:50.119Z,12.57
2022-10-13T09:21:54.178Z,12.59
2022-10-13T09:25:16.717Z,12.72
2022-10-13T09:28:22.963Z,12.75
2022-10-13T09:31:27.939Z,12.91
2022-10-13T09:34:29.986Z,13.02
2022-10-13T09:37:31.870Z,13.03
2022-10-13T09:40:37.034Z,13.10
2022-10-13T09:43:42.929Z,13.02
2022-10-13T09:46:56.618Z,13.09
2022-10-13T09:50:06.561Z,13.14
2022-10-13T09:53:26.307Z,13.29
2022-10-13T09:56:36.210Z,13.28
2022-10-13T09:59:43.169Z,13.28
2022-10-13T10:02:53.549Z,13.32
2022-10-13T10:05:57.511Z,13.36
2022-10-13T10:09:05.965Z,13.38
2022-10-13T10:12:16.281Z,13.39
2022-10-13T10:15:23.675Z,13.42
2022-10-13T10:18:33.872Z,13.48
2022-10-13T10:21:42.677Z,13.49
2022-10-13T10:24:52.082Z,13.49
2022-10-13T10:28:04.465Z,13.59
2022-10-13T10:31:18.597Z,13.70
2022-10-13T10:34:31.040Z,13.77
2022-10-13T10:37:52.374Z,13.84
2022-10-13T10:41:02.222Z,13.77
2022-10-13T10:44:10.081Z,13.82
2022-10-13T10:47:28.200Z,13.97
2022-10-13T10:50:31.837Z,14.04
2022-10-13T10:53:42.006Z,14.05
2022-10-13T10:56:49.476Z,14.12
2022-10-13T10:59:59.546Z,14.11
2022-10-13T11:03:08.512Z,14.04
2022-10-13T11:06:31.702Z,14.08
2022-10-13T11:10:17.229Z,14.11
2022-10-13T11:13:19.265Z,13.94
2022-10-13T11:16:29.559Z,14.06
2022-10-13T11:19:32.967Z,14.05
2022-10-13T11:22:34.919Z,14.07
2022-10-13T11:25:38.075Z,14.11
2022-10-13T11:28:47.662Z,14.08
2022-10-13T11:31:53.838Z,14.13
2022-10-13T11:34:59.431Z,14.17
2022-10-13T11:38:18.204Z,14.32
2022-10-13T11:41:28.101Z,14.36
2022-10-13T11:44:37.785Z,14.43
2022-10-13T11:47:58.242Z,14.48
2022-10-13T11:51:12.511Z,14.54
2022-10-13T11:54:27.310Z,14.59
2022-10-13T11:57:29.392Z,14.63
2022-10-13T12:00:31.500Z,14.78
2022-10-13T12:03:36.499Z,14.86
2022-10-13T12:06:38.696Z,14.91
2022-10-13T12:09:49.561Z,14.97
2022-10-13T12:12:52.054Z,15.08
2022-10-13T12:15:59.449Z,14.99
2022-10-13T12:19:20.893Z,14.94
2022-10-13T12:22:23.147Z,14.95
2022-10-13T12:25:28.161Z,15.01
2022-10-13T12:28:43.601Z,15.10
2022-10-13T12:31:47.504Z,15.19
2022-10-13T12:34:51.117Z,15.33
2022-10-13T12:37:54.341Z,15.38
2022-10-13T12:40:56.825Z,15.33
2022-10-13T12:44:01.252Z,15.37
2022-10-13T12:47:06.192Z,15.40
2022-10-13T12:50:37.149Z,15.47
2022-10-13T12:53:39.304Z,15.55
2022-10-13T12:56:42.492Z,15.52
2022-10-13T12:59:44.523Z,15.53
2022-10-13T13:02:52.034Z,15.76
2022-10-13T13:06:10.339Z,15.78
2022-10-13T13:09:21.213Z,15.93
2022-10-13T13:12:28.705Z,16.12
2022-10-13T13:15:34.029Z,16.17
2022-10-13T13:18:38.980Z,16.11
2022-10-13T13:21:42.533Z,16.40
2022-10-13T13:24:45.147Z,16.25
2022-10-13T13:27:47.376Z,16.22
2022-10-13T13:30:49.242Z,16.29
2022-10-13T13:33:51.257Z,16.27
2022-10-13T13:36:54.689Z,16.21
2022-10-13T13:39:56.608Z,16.14
2022-10-13T13:42:58.557Z,16.17
2022-10-13T13:46:00.372Z,16.20
2022-10-13T13:49:02.312Z,16.22
2022-10-13T13:52:05.680Z,16.17
2022-10-13T13:55:08.727Z,16.26
2022-10-13T13:58:11.826Z,16.32
2022-10-13T14:01:14.539Z,16.41
2022-10-13T14:04:16.452Z,16.36
2022-10-13T14:07:20.006Z,16.23
2022-10-13T14:10:22.390Z,16.26
2022-10-13T14:13:24.395Z,16.30
2022-10-13T14:16:26.448Z,16.49
2022-10-13T14:19:28.629Z,16.23
2022-10-13T14:22:32.042Z,16.52
2022-10-13T14:25:33.996Z,16.48
2022-10-13T14:28:35.932Z,16.54
2022-10-13T14:31:37.957Z,16.54
2022-10-13T14:34:39.988Z,16.54
2022-10-13T14:37:43.365Z,16.36
2022-10-13T14:40:45.287Z,16.26
2022-10-13T14:43:47.193Z,16.29
2022-10-13T14:46:49.144Z,16.19
2022-10-13T14:49:51.061Z,16.24
2022-10-13T14:52:54.460Z,16.16
2022-10-13T14:55:56.416Z,16.11
2022-10-13T14:59:01.581Z,16.10
2022-10-13T15:02:03.546Z,16.09
2022-10-13T15:05:06.672Z,16.02
2022-10-13T15:08:10.228Z,15.95
2022-10-13T15:11:12.578Z,15.88
2022-10-13T15:14:14.621Z,15.76
2022-10-13T15:17:16.513Z,15.77
2022-10-13T15:20:18.837Z,15.77
2022-10-13T15:23:22.270Z,15.70
2022-10-13T15:26:24.298Z,15.74
2022-10-13T15:29:26.249Z,15.67
2022-10-13T15:32:28.681Z,15.51
2022-10-13T15:35:30.646Z,15.49
2022-10-13T15:38:33.912Z,15.48
2022-10-13T15:41:35.851Z,15.48
2022-10-13T15:45:08.025Z,15.42
2022-10-13T15:47:59.694Z,15.40
2022-10-13T15:51:02.381Z,15.39
2022-10-13T15:54:07.290Z,15.31
2022-10-13T15:57:09.211Z,15.29
2022-10-13T16:00:12.943Z,15.26
2022-10-13T16:03:17.332Z,15.26
2022-10-13T16:06:19.180Z,15.21
2022-10-13T16:09:22.467Z,15.19
2022-10-13T16:12:24.410Z,15.18
2022-10-13T16:15:26.411Z,15.19
2022-10-13T16:18:31.688Z,15.15
2022-10-13T16:21:33.688Z,15.16
2022-10-13T16:24:37.265Z,15.09
2022-10-13T16:27:43.846Z,15.05
2022-10-13T16:30:46.349Z,15.00
2022-10-13T16:33:48.469Z,14.94
2022-10-13T16:36:50.374Z,14.86
2022-10-13T16:39:53.733Z,14.82
2022-10-13T16:42:55.738Z,14.77
2022-10-13T16:46:00.001Z,14.77
2022-10-13T16:49:02.496Z,14.72
2022-10-13T16:52:04.587Z,14.58
2022-10-13T16:55:09.065Z,14.61
2022-10-13T16:58:11.424Z,14.62
2022-10-13T17:01:13.783Z,14.54
2022-10-13T17:04:19.802Z,14.44
2022-10-13T17:07:24.362Z,14.44
2022-10-13T17:10:27.852Z,14.31
2022-10-13T17:13:31.563Z,13.99
2022-10-13T17:16:34.138Z,13.75
2022-10-13T17:19:36.077Z,13.82
2022-10-13T17:22:38.604Z,13.76
2022-10-13T17:25:42.654Z,13.85
2022-10-13T17:28:45.649Z,13.96
2022-10-13T17:31:48.629Z,13.97
2022-10-13T17:34:51.152Z,13.94
2022-10-13T17:37:53.907Z,13.87
2022-10-13T17:41:02.754Z,13.62
2022-10-13T17:44:10.002Z,13.61
2022-10-13T17:47:12.195Z,13.58
2022-10-13T17:50:15.849Z,13.55
2022-10-13T17:53:18.456Z,13.38
2022-10-13T17:56:25.111Z,12.77
2022-10-13T17:59:27.282Z,12.35
2022-10-13T18:02:29.721Z,12.10
2022-10-13T18:05:32.004Z,11.98
2022-10-13T18:08:34.649Z,11.85
2022-10-13T18:11:39.691Z,11.83
2022-10-13T18:14:43.255Z,11.86
2022-10-13T18:17:46.343Z,12.04
2022-10-13T18:20:48.857Z,12.30
2022-10-13T18:23:52.137Z,12.48
2022-10-13T18:26:56.655Z,12.58
2022-10-13T18:29:59.202Z,12.62
2022-10-13T18:33:01.914Z,12.64
2022-10-13T18:36:12.868Z,12.55
2022-10-13T18:39:17.762Z,12.36
2022-10-13T18:42:22.382Z,12.26
2022-10-13T18:45:25.209Z,12.05
2022-10-13T18:48:28.462Z,12.03
2022-10-13T18:51:35.908Z,11.94
2022-10-13T18:54:39.418Z,11.89
2022-10-13T18:57:44.751Z,11.68
2022-10-13T19:00:47.391Z,11.31
2022-10-13T19:03:51.271Z,11.29
2022-10-13T19:06:53.954Z,11.22
2022-10-13T19:09:57.127Z,11.53
2022-10-13T19:13:01.185Z,11.61
2022-10-13T19:16:04.127Z,11.65
2022-10-13T19:19:06.997Z,11.78
2022-10-13T19:22:11.033Z,11.92
2022-10-13T19:25:13.957Z,12.03
2022-10-13T19:28:21.389Z,12.04
2022-10-13T19:31:26.405Z,12.10
2022-10-13T19:34:29.296Z,11.78
2022-10-13T19:37:32.773Z,11.90
2022-10-13T19:40:41.473Z,12.03
2022-10-13T19:43:47.039Z,11.97
2022-10-13T19:46:50.877Z,11.67
2022-10-13T19:49:54.238Z,11.49
2022-10-13T19:52:57.025Z,11.50
2022-10-13T19:55:59.859Z,11.68
2022-10-13T19:59:04.955Z,11.78
2022-10-13T20:02:08.285Z,11.80
2022-10-13T20:05:10.974Z,11.85
2022-10-13T20:08:13.542Z,11.85
2022-10-13T20:11:22.401Z,11.79
2022-10-13T20:14:27.874Z,11.90
2022-10-13T20:17:30.550Z,11.81
2022-10-13T20:20:34.041Z,11.51
2022-10-13T20:23:36.489Z,11.22
2022-10-13T20:26:38.886Z,11.13
2022-10-13T20:29:42.370Z,10.99
2022-10-13T20:32:44.332Z,11.07
2022-10-13T20:35:46.324Z,11.22
2022-10-13T20:38:48.788Z,11.21
2022-10-13T20:41:50.726Z,11.00
2022-10-13T20:44:54.059Z,10.97
2022-10-13T20:47:56.086Z,11.16
2022-10-13T20:51:01.596Z,11.19
2022-10-13T20:54:03.693Z,10.89
2022-10-13T20:57:05.625Z,10.71
2022-10-13T21:00:10.629Z,10.56
2022-10-13T21:03:12.531Z,10.53
2022-10-13T21:06:15.195Z,10.73
2022-10-13T21:09:17.171Z,11.00
2022-10-13T21:12:19.150Z,11.20
2022-10-13T21:15:22.494Z,11.25
2022-10-13T21:18:24.570Z,11.25
2022-10-13T21:21:29.194Z,11.22
2022-10-13T21:24:31.241Z,11.23
2022-10-13T21:27:33.227Z,11.31
2022-10-13T21:30:36.548Z,11.25
2022-10-13T21:33:39.733Z,11.31
2022-10-13T21:36:41.671Z,11.47
2022-10-13T21:39:43.622Z,11.54
2022-10-13T21:42:45.839Z,11.63
2022-10-13T21:45:49.301Z,11.53
2022-10-13T21:48:53.167Z,11.40
2022-10-13T21:51:55.283Z,11.32
2022-10-13T21:54:57.151Z,11.34
2022-10-13T21:58:02.972Z,11.38
2022-10-13T22:01:08.747Z,11.47
2022-10-13T22:04:13.478Z,11.34
2022-10-13T22:07:15.469Z,11.16
2022-10-13T22:10:17.468Z,11.03
2022-10-13T22:13:19.386Z,11.13
2022-10-13T22:16:24.282Z,11.15
2022-10-13T22:19:26.258Z,11.09
2022-10-13T22:22:30.926Z,11.05
2022-10-13T22:25:33.132Z,10.75
2022-10-13T22:28:37.467Z,10.51
2022-10-13T22:31:41.125Z,10.66
2022-10-13T22:34:43.090Z,10.80
2022-10-13T22:37:44.999Z,10.96
2022-10-13T22:40:46.936Z,11.00
2022-10-13T22:43:50.666Z,10.49
2022-10-13T22:46:53.954Z,10.27
2022-10-13T22:49:55.961Z,10.52
2022-10-13T22:52:57.851Z,10.72
2022-10-13T22:56:00.297Z,10.87
2022-10-13T22:59:04.989Z,10.86
2022-10-13T23:02:08.387Z,10.85
2022-10-13T23:05:10.319Z,10.84
2022-10-13T23:08:12.278Z,10.92
2022-10-13T23:11:14.454Z,11.01
2022-10-13T23:14:16.541Z,10.98
2022-10-13T23:17:20.245Z,10.67
2022-10-13T23:20:22.465Z,10.79
2022-10-13T23:23:24.482Z,10.88
2022-10-13T23:26:26.832Z,10.93
2022-10-13T23:29:28.710Z,10.94
2022-10-13T23:32:32.004Z,10.54
2022-10-13T23:35:33.937Z,10.52
2022-10-13T23:38:35.835Z,10.67
2022-10-13T23:41:38.089Z,10.53
2022-10-13T23:44:40.009Z,10.44
2022-10-13T23:47:43.409Z,10.54
2022-10-13T23:50:45.344Z,10.56
2022-10-13T23:53:47.382Z,10.66
2022-10-13T23:56:49.322Z,10.74
2022-10-13T23:59:51.284Z,10.81
